createdAt,value
2019-04-03T00:00:59.756Z,22.70
2019-04-03T00:03:02.753Z,20.40
2019-04-03T00:05:05.216Z,16.80
2019-04-03T00:07:07.176Z,20.20
2019-04-03T00:09:08.839Z,20.63
2019-04-03T00:11:11.720Z,21.30
2019-04-03T00:13:13.500Z,20.37
2019-04-03T00:15:15.264Z,17.67
2019-04-03T00:17:16.936Z,22.03
2019-04-03T00:19:18.685Z,20.10
2019-04-03T00:21:20.354Z,23.70
2019-04-03T00:23:22.444Z,19.90
2019-04-03T00:25:24.801Z,22.07
2019-04-03T00:27:26.469Z,20.93
2019-04-03T00:29:28.301Z,19.80
2019-04-03T00:31:29.993Z,21.20
2019-04-03T00:33:31.669Z,21.43
2019-04-03T00:35:33.332Z,20.00
2019-04-03T00:37:35.341Z,17.07
2019-04-03T00:39:37.010Z,19.27
2019-04-03T00:41:39.001Z,21.80
2019-04-03T00:43:40.673Z,25.40
2019-04-03T00:45:42.341Z,19.83
2019-04-03T00:47:44.021Z,19.27
2019-04-03T00:49:45.690Z,22.70
2019-04-03T00:51:47.344Z,23.20
2019-04-03T00:53:49.030Z,21.50
2019-04-03T00:55:50.688Z,26.17
2019-04-03T00:57:52.669Z,22.10
2019-04-03T00:59:56.045Z,21.00
2019-04-03T01:01:57.902Z,19.50
2019-04-03T01:03:59.584Z,21.17
2019-04-03T01:06:01.419Z,18.13
2019-04-03T01:08:03.433Z,19.90
2019-04-03T01:10:05.196Z,18.90
2019-04-03T01:12:06.890Z,16.13
2019-04-03T01:14:08.654Z,19.40
2019-04-03T01:16:10.760Z,18.73
2019-04-03T01:18:12.603Z,20.57
2019-04-03T01:20:14.340Z,19.87
2019-04-03T01:22:16.044Z,21.33
2019-04-03T01:24:18.033Z,24.93
2019-04-03T01:26:19.701Z,27.57
2019-04-03T01:28:21.377Z,25.63
2019-04-03T01:30:23.044Z,23.50
2019-04-03T01:32:24.706Z,21.70
2019-04-03T01:34:26.533Z,22.53
2019-04-03T01:36:28.442Z,25.63
2019-04-03T01:38:30.122Z,22.10
2019-04-03T01:40:31.838Z,26.60
2019-04-03T01:42:33.585Z,19.93
2019-04-03T01:44:35.249Z,29.10
2019-04-03T01:46:36.916Z,22.07
2019-04-03T01:48:38.593Z,26.60
2019-04-03T01:50:40.255Z,24.80
2019-04-03T01:52:41.924Z,30.83
2019-04-03T01:54:44.209Z,24.20
2019-04-03T01:56:46.511Z,25.37
2019-04-03T01:58:48.195Z,24.63
2019-04-03T02:00:50.126Z,22.40
2019-04-03T02:02:52.026Z,25.20
2019-04-03T02:04:53.698Z,24.90
2019-04-03T02:06:55.412Z,32.13
2019-04-03T02:08:57.341Z,29.67
2019-04-03T02:10:59.010Z,22.00
2019-04-03T02:13:00.880Z,25.60
2019-04-03T02:15:02.804Z,28.50
2019-04-03T02:17:04.476Z,31.20
2019-04-03T02:19:06.146Z,19.70
2019-04-03T02:21:07.813Z,24.10
2019-04-03T02:23:09.829Z,22.93
2019-04-03T02:25:11.917Z,26.80
2019-04-03T02:27:13.660Z,25.20
2019-04-03T02:29:15.711Z,24.90
2019-04-03T02:31:19.696Z,24.63
2019-04-03T02:33:21.562Z,26.70
2019-04-03T02:35:23.224Z,23.20
2019-04-03T02:37:25.036Z,21.83
2019-04-03T02:39:27.661Z,23.87
2019-04-03T02:41:30.168Z,23.00
2019-04-03T02:43:32.043Z,21.30
2019-04-03T02:45:33.814Z,25.23
2019-04-03T02:47:35.481Z,22.27
2019-04-03T02:49:37.470Z,25.93
2019-04-03T02:51:41.042Z,26.00
2019-04-03T02:53:43.156Z,25.00
2019-04-03T02:55:45.327Z,23.97
2019-04-03T02:57:49.045Z,28.80
2019-04-03T02:59:50.622Z,24.10
2019-04-03T03:01:52.499Z,27.43
2019-04-03T03:03:54.776Z,27.43
2019-04-03T03:05:59.287Z,22.90
2019-04-03T03:08:00.003Z,25.10
2019-04-03T03:10:01.677Z,26.43
2019-04-03T03:12:03.488Z,24.07
2019-04-03T03:14:07.202Z,28.93
2019-04-03T03:16:08.814Z,25.40
2019-04-03T03:18:10.573Z,31.03
2019-04-03T03:20:12.279Z,24.73
2019-04-03T03:22:17.220Z,32.53
2019-04-03T03:24:17.644Z,24.23
2019-04-03T03:26:19.585Z,19.37
2019-04-03T03:28:21.534Z,20.47
2019-04-03T03:30:41.854Z,15.83
2019-04-03T03:32:33.416Z,17.63
2019-04-03T03:34:48.945Z,15.33
2019-04-03T03:36:35.198Z,20.17
2019-04-03T03:38:39.954Z,19.03
2019-04-03T03:40:42.606Z,20.90
2019-04-03T03:42:44.357Z,19.00
2019-04-03T03:44:46.854Z,19.67
2019-04-03T03:46:48.840Z,20.37
2019-04-03T03:48:50.830Z,22.50
2019-04-03T03:50:56.171Z,19.70
2019-04-03T03:52:56.210Z,25.40
2019-04-03T03:54:58.289Z,20.27
2019-04-03T03:57:03.933Z,23.37
2019-04-03T03:59:04.368Z,26.20
2019-04-03T04:01:06.539Z,25.50
2019-04-03T04:03:10.022Z,22.07
2019-04-03T04:05:12.405Z,26.70
2019-04-03T04:07:14.317Z,23.00
2019-04-03T04:09:18.006Z,26.90
2019-04-03T04:11:19.979Z,35.20
2019-04-03T04:13:22.308Z,30.00
2019-04-03T04:15:28.699Z,49.00
2019-04-03T04:17:27.906Z,30.77
2019-04-03T04:19:31.103Z,31.73
2019-04-03T04:21:33.657Z,32.97
2019-04-03T04:23:35.487Z,27.93
2019-04-03T04:25:37.152Z,27.57
2019-04-03T04:27:39.440Z,34.33
2019-04-03T04:29:42.100Z,27.50
2019-04-03T04:31:44.467Z,31.80
2019-04-03T04:33:47.948Z,30.20
2019-04-03T04:35:52.424Z,32.40
2019-04-03T04:37:55.281Z,32.27
2019-04-03T04:39:57.925Z,29.97
2019-04-03T04:42:03.476Z,27.80
2019-04-03T04:44:04.777Z,29.90
2019-04-03T04:46:08.946Z,32.23
2019-04-03T04:48:10.127Z,26.80
2019-04-03T04:50:14.454Z,23.97
2019-04-03T04:52:16.115Z,19.20
2019-04-03T04:54:17.785Z,22.50
2019-04-03T04:56:19.557Z,19.87
2019-04-03T04:58:21.888Z,18.63
2019-04-03T05:00:23.561Z,17.57
2019-04-03T05:02:25.229Z,18.40
2019-04-03T05:04:27.178Z,20.83
2019-04-03T05:06:29.715Z,20.10
2019-04-03T05:08:32.992Z,26.33
2019-04-03T05:10:36.904Z,25.33
2019-04-03T05:12:40.446Z,24.30
2019-04-03T05:14:42.454Z,22.17
2019-04-03T05:16:44.125Z,25.33
2019-04-03T05:18:45.789Z,24.33
2019-04-03T05:20:50.532Z,23.87
2019-04-03T05:22:51.032Z,26.50
2019-04-03T05:24:52.893Z,21.73
2019-04-03T05:26:54.921Z,22.97
2019-04-03T05:28:57.741Z,30.77
2019-04-03T05:30:59.824Z,15.47
2019-04-03T05:33:01.783Z,23.53
2019-04-03T05:35:03.719Z,19.40
2019-04-03T05:37:05.398Z,28.00
2019-04-03T05:39:07.052Z,30.10
2019-04-03T05:41:08.989Z,16.07
2019-04-03T05:43:10.653Z,19.97
2019-04-03T05:45:12.352Z,17.70
2019-04-03T05:47:14.473Z,18.97
2019-04-03T05:49:18.687Z,24.13
2019-04-03T05:51:19.705Z,23.97
2019-04-03T05:53:21.381Z,23.03
2019-04-03T05:55:23.052Z,19.73
2019-04-03T05:57:24.721Z,17.30
2019-04-03T05:59:26.406Z,25.70
2019-04-03T06:01:28.086Z,29.40
2019-04-03T06:03:39.213Z,31.30
2019-04-03T06:05:33.423Z,32.70
2019-04-03T06:07:35.385Z,33.63
2019-04-03T06:09:37.058Z,33.20
2019-04-03T06:11:40.540Z,38.20
2019-04-03T06:13:42.314Z,37.10
2019-04-03T06:15:43.988Z,37.47
2019-04-03T06:17:45.897Z,32.97
2019-04-03T06:19:47.718Z,36.77
2019-04-03T06:21:49.636Z,48.10
2019-04-03T06:23:52.678Z,47.57
2019-04-03T06:25:54.909Z,28.53
2019-04-03T06:27:56.636Z,27.53
2019-04-03T06:29:58.538Z,28.87
2019-04-03T06:32:00.718Z,29.57
2019-04-03T06:34:02.901Z,28.73
2019-04-03T06:36:04.561Z,25.07
2019-04-03T06:38:06.238Z,27.30
2019-04-03T06:40:07.921Z,25.90
2019-04-03T06:42:09.593Z,29.20
2019-04-03T06:44:11.262Z,27.20
2019-04-03T06:46:12.934Z,22.30
2019-04-03T06:48:14.877Z,22.10
2019-04-03T06:50:17.567Z,22.60
2019-04-03T06:52:21.488Z,21.17
2019-04-03T06:54:23.826Z,23.17
2019-04-03T06:56:25.732Z,25.97
2019-04-03T06:58:37.357Z,26.50
2019-04-03T07:00:31.226Z,25.17
2019-04-03T07:02:33.176Z,25.00
2019-04-03T07:04:36.164Z,27.50
2019-04-03T07:06:38.651Z,25.10
2019-04-03T07:08:41.142Z,25.20
2019-04-03T07:10:54.591Z,27.03
2019-04-03T07:12:48.105Z,21.27
2019-04-03T07:14:50.341Z,26.80
2019-04-03T07:16:52.339Z,25.90
2019-04-03T07:18:54.000Z,28.53
2019-04-03T07:20:55.670Z,31.53
2019-04-03T07:22:59.049Z,25.60
2019-04-03T07:25:03.115Z,24.73
2019-04-03T07:27:06.175Z,24.27
2019-04-03T07:29:10.900Z,21.13
2019-04-03T07:31:11.612Z,22.77
2019-04-03T07:33:13.306Z,29.47
2019-04-03T07:35:14.974Z,25.67
2019-04-03T07:37:18.892Z,31.73
2019-04-03T07:39:20.492Z,26.80
2019-04-03T07:41:23.438Z,22.97
2019-04-03T07:43:26.850Z,26.30
2019-04-03T07:45:29.085Z,29.20
2019-04-03T07:47:30.762Z,25.40
2019-04-03T07:49:32.531Z,29.13
2019-04-03T07:51:34.377Z,25.43
2019-04-03T07:53:36.253Z,25.20
2019-04-03T07:55:37.908Z,21.43
2019-04-03T07:57:41.415Z,22.77
2019-04-03T07:59:43.161Z,27.47
2019-04-03T08:01:45.161Z,18.00
2019-04-03T08:03:46.951Z,23.47
2019-04-03T08:05:49.264Z,19.40
2019-04-03T08:07:51.757Z,16.43
2019-04-03T08:09:53.777Z,18.10
2019-04-03T08:11:55.479Z,19.57
2019-04-03T08:13:57.220Z,18.60
2019-04-03T08:15:59.313Z,19.57
2019-04-03T08:18:01.338Z,15.53
2019-04-03T08:20:04.045Z,21.10
2019-04-03T08:22:05.895Z,19.63
2019-04-03T08:24:08.623Z,20.43
2019-04-03T08:26:11.951Z,19.10
2019-04-03T08:28:14.397Z,18.20
2019-04-03T08:30:16.110Z,18.30
2019-04-03T08:32:17.777Z,15.20
2019-04-03T08:34:19.445Z,18.03
2019-04-03T08:36:25.017Z,18.30
2019-04-03T08:38:24.926Z,15.43
2019-04-03T08:40:26.846Z,21.63
2019-04-03T08:42:30.793Z,21.47
2019-04-03T08:44:32.100Z,20.30
2019-04-03T08:46:34.027Z,16.40
2019-04-03T08:48:36.178Z,16.30
2019-04-03T08:50:38.692Z,18.13
2019-04-03T08:52:40.892Z,16.80
2019-04-03T08:54:42.729Z,27.73
2019-04-03T08:56:44.621Z,19.80
2019-04-03T08:58:46.306Z,18.50
2019-04-03T09:00:47.966Z,17.00
2019-04-03T09:02:49.641Z,16.83
2019-04-03T09:04:51.309Z,24.40
2019-04-03T09:06:54.101Z,19.30
2019-04-03T09:08:57.835Z,19.50
2019-04-03T09:11:00.734Z,16.77
2019-04-03T09:13:15.369Z,15.63
2019-04-03T09:15:06.416Z,19.47
2019-04-03T09:17:08.513Z,25.50
2019-04-03T09:19:10.877Z,14.97
2019-04-03T09:21:14.766Z,20.00
2019-04-03T09:23:16.325Z,17.53
2019-04-03T09:25:17.997Z,18.53
2019-04-03T09:27:19.764Z,20.17
2019-04-03T09:29:21.532Z,17.63
2019-04-03T09:31:23.210Z,19.00
2019-04-03T09:33:26.328Z,17.10
2019-04-03T09:35:28.770Z,15.90
2019-04-03T09:37:30.432Z,23.03
2019-04-03T09:39:32.350Z,23.60
2019-04-03T09:41:34.018Z,17.23
2019-04-03T09:43:38.910Z,15.10
2019-04-03T09:45:39.583Z,18.40
2019-04-03T09:47:41.254Z,17.73
2019-04-03T09:49:44.174Z,16.60
2019-04-03T09:51:46.505Z,16.67
2019-04-03T09:53:48.469Z,21.60
2019-04-03T09:55:50.128Z,14.20
2019-04-03T09:57:53.182Z,16.70
2019-04-03T09:59:55.286Z,16.30
2019-04-03T10:01:57.034Z,14.73
2019-04-03T10:03:58.990Z,17.63
2019-04-03T10:06:00.883Z,16.10
2019-04-03T10:08:02.629Z,14.47
2019-04-03T10:10:05.189Z,17.90
2019-04-03T10:12:06.872Z,19.47
2019-04-03T10:14:08.950Z,16.87
2019-04-03T10:16:10.612Z,16.50
2019-04-03T10:18:12.282Z,15.57
2019-04-03T10:20:15.078Z,20.50
2019-04-03T10:22:17.529Z,13.30
2019-04-03T10:24:19.200Z,15.80
2019-04-03T10:26:20.870Z,22.83
2019-04-03T10:28:22.529Z,19.20
2019-04-03T10:30:24.205Z,12.37
2019-04-03T10:32:27.716Z,15.13
2019-04-03T10:34:29.449Z,14.37
2019-04-03T10:36:31.118Z,15.80
2019-04-03T10:38:32.818Z,20.53
2019-04-03T10:40:34.566Z,14.00
2019-04-03T10:42:36.251Z,14.93
2019-04-03T10:44:38.282Z,12.90
2019-04-03T10:46:39.962Z,15.67
2019-04-03T10:48:41.925Z,9.93
2019-04-03T10:50:43.953Z,11.97
2019-04-03T10:52:47.934Z,12.63
2019-04-03T10:54:49.332Z,16.23
2019-04-03T10:56:51.268Z,18.13
2019-04-03T10:58:53.149Z,12.53
2019-04-03T11:00:54.924Z,16.83
2019-04-03T11:02:56.575Z,16.37
2019-04-03T11:04:59.819Z,17.53
2019-04-03T11:07:01.825Z,11.40
2019-04-03T11:09:07.640Z,20.83
2019-04-03T11:11:09.805Z,11.80
2019-04-03T11:13:11.460Z,13.90
2019-04-03T11:15:13.141Z,14.27
2019-04-03T11:17:17.546Z,18.03
2019-04-03T11:19:19.832Z,15.70
2019-04-03T11:21:22.093Z,13.07
2019-04-03T11:23:36.503Z,15.47
2019-04-03T11:25:27.410Z,13.30
2019-04-03T11:27:42.501Z,11.80
2019-04-03T11:29:33.096Z,19.77
2019-04-03T11:31:41.229Z,16.23
2019-04-03T11:33:39.146Z,14.90
2019-04-03T11:35:42.142Z,17.60
2019-04-03T11:37:44.047Z,14.73
2019-04-03T11:39:46.592Z,14.20
2019-04-03T11:41:48.895Z,15.90
2019-04-03T11:43:50.546Z,12.80
2019-04-03T11:45:52.522Z,17.20
2019-04-03T11:47:54.551Z,15.00
2019-04-03T11:49:56.659Z,14.73
2019-04-03T11:51:58.954Z,14.23
2019-04-03T11:54:02.365Z,13.50
2019-04-03T11:56:04.445Z,15.37
2019-04-03T11:58:06.227Z,17.43
2019-04-03T12:00:12.311Z,17.23
2019-04-03T12:02:13.981Z,11.60
2019-04-03T12:04:15.924Z,13.20
2019-04-03T12:06:19.542Z,15.37
2019-04-03T12:08:21.789Z,17.60
2019-04-03T12:10:25.521Z,15.53
2019-04-03T12:12:27.225Z,14.83
2019-04-03T12:14:29.226Z,20.57
2019-04-03T12:16:30.897Z,19.70
2019-04-03T12:18:34.071Z,15.57
2019-04-03T12:20:36.424Z,16.90
2019-04-03T12:22:38.550Z,15.20
2019-04-03T12:24:40.492Z,13.03
2019-04-03T12:26:43.584Z,18.30
2019-04-03T12:28:46.889Z,12.30
2019-04-03T12:30:49.514Z,15.90
2019-04-03T12:32:51.325Z,11.20
2019-04-03T12:34:53.325Z,15.40
2019-04-03T12:36:55.008Z,13.80
2019-04-03T12:38:57.244Z,18.33
2019-04-03T12:40:59.268Z,13.80
2019-04-03T12:43:01.101Z,12.47
2019-04-03T12:45:04.123Z,18.17
2019-04-03T12:47:12.099Z,16.50
2019-04-03T12:49:09.685Z,16.63
2019-04-03T12:51:11.681Z,18.63
2019-04-03T12:53:14.145Z,14.50
2019-04-03T12:55:17.242Z,15.50
2019-04-03T12:57:18.994Z,13.40
2019-04-03T12:59:21.064Z,14.00
2019-04-03T13:01:23.437Z,10.43
2019-04-03T13:03:26.123Z,12.30
2019-04-03T13:05:28.552Z,13.20
2019-04-03T13:07:30.598Z,13.00
2019-04-03T13:09:32.397Z,12.50
2019-04-03T13:11:34.072Z,10.93
2019-04-03T13:13:38.009Z,17.57
2019-04-03T13:15:39.298Z,10.93
2019-04-03T13:17:43.499Z,10.93
2019-04-03T13:19:45.089Z,10.30
2019-04-03T13:21:47.196Z,10.97
2019-04-03T13:23:48.862Z,9.57
2019-04-03T13:25:51.013Z,10.90
2019-04-03T13:27:54.101Z,17.13
2019-04-03T13:29:55.981Z,9.67
2019-04-03T13:31:57.754Z,13.30
2019-04-03T13:33:59.605Z,11.40
2019-04-03T13:36:01.577Z,12.93
2019-04-03T13:38:03.683Z,10.23
2019-04-03T13:40:06.906Z,8.97
2019-04-03T13:42:09.452Z,10.37
2019-04-03T13:44:11.362Z,11.63
2019-04-03T13:46:13.325Z,12.73
2019-04-03T13:48:15.476Z,28.80
2019-04-03T13:50:17.429Z,10.27
2019-04-03T13:52:19.106Z,10.23
2019-04-03T13:54:20.777Z,12.50
2019-04-03T13:56:24.190Z,12.00
2019-04-03T13:58:28.304Z,10.67
2019-04-03T14:00:32.116Z,12.97
2019-04-03T14:02:33.151Z,12.00
2019-04-03T14:04:34.814Z,14.47
2019-04-03T14:06:37.175Z,12.93
2019-04-03T14:08:39.343Z,21.17
2019-04-03T14:10:41.008Z,20.10
2019-04-03T14:12:44.549Z,19.67
2019-04-03T14:14:47.845Z,17.83
2019-04-03T14:16:49.825Z,17.83
2019-04-03T14:18:51.490Z,19.63
2019-04-03T14:20:54.060Z,20.70
2019-04-03T14:22:56.712Z,24.10
2019-04-03T14:24:58.447Z,20.83
2019-04-03T14:27:00.438Z,23.63
2019-04-03T14:29:02.410Z,21.30
2019-04-03T14:31:05.555Z,23.40
2019-04-03T14:33:07.728Z,23.00
2019-04-03T14:35:40.900Z,21.07
2019-04-03T14:37:13.306Z,25.80
2019-04-03T14:39:14.983Z,23.50
2019-04-03T14:41:18.656Z,22.43
2019-04-03T14:43:22.075Z,21.97
2019-04-03T14:45:24.336Z,29.33
2019-04-03T14:47:27.894Z,23.53
2019-04-03T14:49:31.735Z,27.87
2019-04-03T14:51:33.725Z,24.17
2019-04-03T14:53:35.832Z,27.70
2019-04-03T14:55:47.054Z,28.60
2019-04-03T14:57:41.385Z,29.83
2019-04-03T14:59:43.450Z,24.07
2019-04-03T15:01:45.396Z,30.67
2019-04-03T15:03:47.789Z,28.87
2019-04-03T15:05:49.594Z,33.73
2019-04-03T15:07:51.494Z,29.80
2019-04-03T15:09:53.549Z,26.90
2019-04-03T15:11:55.225Z,32.53
2019-04-03T15:13:57.362Z,27.03
2019-04-03T15:16:00.539Z,22.33
2019-04-03T15:18:03.303Z,23.97
2019-04-03T15:20:05.839Z,24.80
2019-04-03T15:22:07.697Z,26.30
2019-04-03T15:24:11.405Z,30.17
2019-04-03T15:26:13.041Z,26.63
2019-04-03T15:28:15.162Z,25.03
2019-04-03T15:30:16.963Z,25.50
2019-04-03T15:32:20.361Z,25.87
2019-04-03T15:34:22.557Z,27.73
2019-04-03T15:36:24.229Z,27.37
2019-04-03T15:38:25.902Z,24.73
2019-04-03T15:40:28.288Z,24.33
2019-04-03T15:42:30.190Z,21.60
2019-04-03T15:44:31.985Z,23.60
2019-04-03T15:46:34.350Z,25.03
2019-04-03T15:48:36.780Z,29.50
2019-04-03T15:50:39.999Z,20.60
2019-04-03T15:52:43.738Z,19.67
2019-04-03T15:54:45.375Z,19.27
2019-04-03T15:56:47.034Z,18.57
2019-04-03T15:58:52.099Z,17.70
2019-04-03T16:00:53.966Z,20.70
2019-04-03T16:02:55.934Z,21.40
2019-04-03T16:04:59.437Z,21.77
2019-04-03T16:07:02.064Z,21.70
2019-04-03T16:09:06.174Z,21.40
2019-04-03T16:11:08.090Z,21.00
2019-04-03T16:13:10.150Z,19.67
2019-04-03T16:15:12.716Z,20.13
2019-04-03T16:17:14.733Z,20.47
2019-04-03T16:19:16.557Z,21.53
2019-04-03T16:21:21.437Z,17.93
2019-04-03T16:23:23.025Z,20.30
2019-04-03T16:25:24.797Z,21.73
2019-04-03T16:27:29.245Z,17.77
2019-04-03T16:29:31.227Z,19.97
2019-04-03T16:31:33.734Z,16.20
2019-04-03T16:33:36.931Z,14.50
2019-04-03T16:35:39.503Z,16.03
2019-04-03T16:37:41.584Z,15.20
2019-04-03T16:39:43.620Z,22.50
2019-04-03T16:41:45.552Z,18.17
2019-04-03T16:43:47.537Z,17.13
2019-04-03T16:45:49.196Z,20.03
2019-04-03T16:47:50.953Z,17.53
2019-04-03T16:49:55.320Z,19.23
2019-04-03T16:51:56.164Z,20.43
2019-04-03T16:53:59.927Z,20.60
2019-04-03T16:56:05.044Z,21.17
2019-04-03T16:58:06.134Z,19.77
2019-04-03T17:00:09.491Z,20.20
2019-04-03T17:02:12.125Z,24.00
2019-04-03T17:04:23.647Z,20.30
2019-04-03T17:06:17.580Z,22.53
2019-04-03T17:08:19.476Z,19.77
2019-04-03T17:10:21.365Z,25.03
2019-04-03T17:12:23.037Z,22.30
2019-04-03T17:14:25.287Z,20.67
2019-04-03T17:16:27.500Z,20.67
2019-04-03T17:18:29.181Z,23.03
2019-04-03T17:20:31.157Z,21.80
2019-04-03T17:22:33.241Z,22.93
2019-04-03T17:24:41.438Z,22.93
2019-04-03T17:26:48.976Z,23.00
2019-04-03T17:28:42.225Z,42.53
2019-04-03T17:30:43.893Z,35.53
2019-04-03T17:32:46.117Z,36.33
2019-04-03T17:34:47.936Z,28.80
2019-04-03T17:36:50.072Z,24.40
2019-04-03T17:38:53.181Z,27.33
2019-04-03T17:40:54.865Z,24.27
2019-04-03T17:42:56.537Z,20.67
2019-04-03T17:44:58.259Z,22.10
2019-04-03T17:46:59.974Z,22.37
2019-04-03T17:49:01.648Z,24.63
2019-04-03T17:51:03.329Z,23.00
2019-04-03T17:53:06.587Z,21.30
2019-04-03T17:55:09.972Z,22.53
2019-04-03T17:57:13.700Z,24.93
2019-04-03T17:59:18.150Z,23.80
2019-04-03T18:01:22.275Z,27.07
2019-04-03T18:03:23.545Z,24.23
2019-04-03T18:05:25.625Z,28.43
2019-04-03T18:07:30.652Z,27.53
2019-04-03T18:09:32.361Z,23.97
2019-04-03T18:11:34.024Z,26.00
2019-04-03T18:13:35.706Z,24.60
2019-04-03T18:15:37.705Z,24.83
2019-04-03T18:17:39.372Z,25.30
2019-04-03T18:19:41.826Z,23.17
2019-04-03T18:21:44.030Z,23.37
2019-04-03T18:23:45.702Z,21.73
2019-04-03T18:25:47.684Z,22.40
2019-04-03T18:27:49.357Z,25.80
2019-04-03T18:29:51.029Z,22.30
2019-04-03T18:31:52.693Z,23.83
2019-04-03T18:33:54.371Z,24.47
2019-04-03T18:35:56.751Z,28.77
2019-04-03T18:37:59.101Z,26.87
2019-04-03T18:40:00.783Z,27.20
2019-04-03T18:42:02.757Z,29.90
2019-04-03T18:44:04.731Z,26.97
2019-04-03T18:46:06.465Z,21.33
2019-04-03T18:48:08.136Z,29.23
2019-04-03T18:50:10.332Z,24.50
2019-04-03T18:52:12.472Z,25.77
2019-04-03T18:54:14.129Z,28.03
2019-04-03T18:56:16.083Z,27.13
2019-04-03T18:58:17.770Z,28.57
2019-04-03T19:00:19.440Z,22.70
2019-04-03T19:02:21.471Z,31.67
2019-04-03T19:04:23.132Z,25.07
2019-04-03T19:06:24.810Z,24.20
2019-04-03T19:08:26.466Z,26.70
2019-04-03T19:10:28.132Z,27.40
2019-04-03T19:12:35.565Z,28.03
2019-04-03T19:14:33.393Z,29.93
2019-04-03T19:16:43.927Z,28.23
2019-04-03T19:18:38.635Z,24.90
2019-04-03T19:20:40.394Z,27.93
2019-04-03T19:22:42.065Z,28.80
2019-04-03T19:24:43.742Z,29.00
2019-04-03T19:26:45.792Z,27.63
2019-04-03T19:28:47.474Z,29.83
2019-04-03T19:30:49.470Z,32.87
2019-04-03T19:32:51.147Z,27.90
2019-04-03T19:34:53.254Z,27.03
2019-04-03T19:36:55.277Z,28.40
2019-04-03T19:38:56.926Z,26.20
2019-04-03T19:40:58.925Z,27.33
2019-04-03T19:43:00.585Z,24.40
2019-04-03T19:45:02.293Z,27.50
2019-04-03T19:47:04.157Z,28.33
2019-04-03T19:49:05.826Z,28.27
2019-04-03T19:51:07.493Z,25.20
2019-04-03T19:53:09.237Z,28.97
2019-04-03T19:55:10.950Z,26.37
2019-04-03T19:57:12.613Z,28.33
2019-04-03T19:59:14.306Z,28.23
2019-04-03T20:01:16.268Z,25.53
2019-04-03T20:03:17.925Z,31.10
2019-04-03T20:05:19.615Z,28.67
2019-04-03T20:07:21.371Z,30.37
2019-04-03T20:09:23.124Z,29.90
2019-04-03T20:11:24.799Z,26.33
2019-04-03T20:13:28.043Z,32.70
2019-04-03T20:15:30.041Z,28.70
2019-04-03T20:17:34.663Z,31.37
2019-04-03T20:19:36.090Z,25.73
2019-04-03T20:21:38.044Z,25.80
2019-04-03T20:23:41.724Z,23.67
2019-04-03T20:25:44.030Z,25.70
2019-04-03T20:27:47.345Z,26.83
2019-04-03T20:29:50.413Z,27.40
2019-04-03T20:31:52.225Z,32.00
2019-04-03T20:33:53.880Z,30.70
2019-04-03T20:35:55.535Z,33.70
2019-04-03T20:37:57.705Z,31.83
2019-04-03T20:40:00.049Z,28.70
2019-04-03T20:42:03.416Z,27.83
2019-04-03T20:44:05.525Z,33.20
2019-04-03T20:46:07.471Z,28.00
2019-04-03T20:48:09.132Z,29.33
2019-04-03T20:50:10.819Z,33.67
2019-04-03T20:52:12.479Z,29.10
2019-04-03T20:54:14.528Z,33.07
2019-04-03T20:56:16.186Z,34.30
2019-04-03T20:58:17.862Z,33.87
2019-04-03T21:00:19.528Z,38.20
2019-04-03T21:02:21.508Z,42.17
2019-04-03T21:04:23.772Z,43.17
2019-04-03T21:06:25.449Z,39.47
2019-04-03T21:08:27.193Z,45.33
2019-04-03T21:10:31.179Z,44.13
2019-04-03T21:12:33.906Z,31.50
2019-04-03T21:14:36.281Z,23.17
2019-04-03T21:16:38.196Z,17.07
2019-04-03T21:18:40.121Z,13.57
2019-04-03T21:20:41.785Z,15.90
2019-04-03T21:22:43.462Z,16.27
2019-04-03T21:24:45.415Z,19.57
2019-04-03T21:26:47.097Z,18.80
2019-04-03T21:28:48.878Z,19.80
2019-04-03T21:30:50.621Z,15.67
2019-04-03T21:32:52.293Z,14.40
2019-04-03T21:34:53.956Z,13.40
2019-04-03T21:36:55.941Z,14.50
2019-04-03T21:38:57.600Z,15.13
2019-04-03T21:40:59.260Z,19.57
2019-04-03T21:43:00.944Z,17.93
2019-04-03T21:45:05.135Z,22.83
2019-04-03T21:47:06.398Z,16.93
2019-04-03T21:49:08.104Z,14.80
2019-04-03T21:51:09.825Z,14.87
2019-04-03T21:53:11.493Z,18.60
2019-04-03T21:55:13.169Z,15.20
2019-04-03T21:57:14.851Z,16.80
2019-04-03T21:59:16.512Z,16.70
2019-04-03T22:01:19.993Z,16.57
2019-04-03T22:03:21.665Z,15.00
2019-04-03T22:05:24.739Z,20.40
2019-04-03T22:07:28.590Z,17.43
2019-04-03T22:09:30.719Z,13.13
2019-04-03T22:11:35.045Z,22.53
2019-04-03T22:13:38.290Z,19.27
2019-04-03T22:15:40.205Z,15.00
2019-04-03T22:17:43.691Z,19.33
2019-04-03T22:19:45.457Z,18.77
2019-04-03T22:21:47.138Z,24.30
2019-04-03T22:23:48.802Z,21.30
2019-04-03T22:25:50.560Z,20.20
2019-04-03T22:27:52.239Z,20.83
2019-04-03T22:29:53.897Z,20.30
2019-04-03T22:31:55.560Z,22.10
2019-04-03T22:33:58.881Z,20.60
2019-04-03T22:36:02.956Z,17.00
2019-04-03T22:38:05.513Z,22.97
2019-04-03T22:40:09.829Z,20.30
2019-04-03T22:42:14.688Z,20.60
2019-04-03T22:44:16.891Z,25.37
2019-04-03T22:46:21.760Z,20.17
2019-04-03T22:48:22.220Z,17.73
2019-04-03T22:50:24.150Z,19.90
2019-04-03T22:52:25.830Z,22.83
2019-04-03T22:54:27.769Z,21.53
2019-04-03T22:56:29.765Z,22.40
2019-04-03T22:58:31.440Z,19.70
2019-04-03T23:00:33.100Z,21.30
2019-04-03T23:02:34.769Z,21.87
2019-04-03T23:04:36.438Z,22.87
2019-04-03T23:06:38.087Z,21.30
2019-04-03T23:08:39.744Z,28.07
2019-04-03T23:10:41.414Z,21.73
2019-04-03T23:12:43.377Z,24.13
2019-04-03T23:14:45.046Z,24.13
2019-04-03T23:16:46.714Z,24.90
2019-04-03T23:18:48.380Z,25.30
2019-04-03T23:20:52.639Z,25.43
2019-04-03T23:22:56.311Z,28.07
2019-04-03T23:24:59.280Z,27.67
2019-04-03T23:27:02.387Z,25.63
2019-04-03T23:29:05.131Z,29.47
2019-04-03T23:31:07.455Z,26.77
2019-04-03T23:33:09.125Z,30.00
2019-04-03T23:35:10.789Z,28.87
2019-04-03T23:37:12.453Z,27.07
2019-04-03T23:39:14.120Z,30.30
2019-04-03T23:41:15.784Z,25.23
2019-04-03T23:43:17.453Z,29.73
2019-04-03T23:45:19.927Z,27.03
2019-04-03T23:47:21.694Z,33.57
2019-04-03T23:49:23.364Z,30.27
2019-04-03T23:51:27.318Z,28.00
2019-04-03T23:53:31.951Z,27.13
2019-04-03T23:55:32.424Z,33.30
2019-04-03T23:57:34.141Z,29.77
2019-04-03T23:59:35.819Z,33.00
